El Colorado, Argentina
Current Conditions -  °F | °C
As of 3:00 PM on Thursday 18 Dec 2014 (Local Time) from SARF Reporting Station
Scattered Clouds Scattered Clouds  
Wind Chill: 31°   Ceiling: Unl
Heat Index: 35°   Visibility: 6mi
Dew Point: 23°   Wind: 8mph
Humidity: 62%   Direction: 140°SE
Pressure: 29.83"   Gusts: NA
Location:  26.3°S, 59.37°W
Report Text: SARF 181800Z 14007KT 9999 FEW018 SCT02531/23 Q1010
Loading
Personal Weather Stations






























Interactive Weather Map New forecast layout! Learn more

10-Day Weather Forecast

Advertisements
Track Severe Weather on mobile